sensor_id;sensor_type;location;lat;lon;timestamp;P1;durP1;ratioP1;P2;durP2;ratioP2
60060;SDS011;45933;51.336;12.612;2023-11-22T00:00:20;11.60;;;7.43;;
60060;SDS011;45933;51.336;12.612;2023-11-22T00:02:45;9.93;;;6.80;;
60060;SDS011;45933;51.336;12.612;2023-11-22T00:05:12;11.30;;;7.27;;
60060;SDS011;45933;51.336;12.612;2023-11-22T00:07:37;10.77;;;7.40;;
60060;SDS011;45933;51.336;12.612;2023-11-22T00:10:03;9.97;;;6.60;;
60060;SDS011;45933;51.336;12.612;2023-11-22T00:12:29;12.47;;;7.70;;
60060;SDS011;45933;51.336;12.612;2023-11-22T00:15:01;10.10;;;6.97;;
60060;SDS011;45933;51.336;12.612;2023-11-22T00:17:28;9.33;;;6.73;;
60060;SDS011;45933;51.336;12.612;2023-11-22T00:19:53;11.00;;;6.80;;
60060;SDS011;45933;51.336;12.612;2023-11-22T00:22:18;13.27;;;6.60;;
60060;SDS011;45933;51.336;12.612;2023-11-22T00:24:44;8.70;;;5.90;;
60060;SDS011;45933;51.336;12.612;2023-11-22T00:27:15;10.17;;;6.27;;
60060;SDS011;45933;51.336;12.612;2023-11-22T00:29:40;9.40;;;6.53;;
60060;SDS011;45933;51.336;12.612;2023-11-22T00:32:05;8.20;;;6.13;;
60060;SDS011;45933;51.336;12.612;2023-11-22T00:34:32;10.70;;;6.10;;
60060;SDS011;45933;51.336;12.612;2023-11-22T00:36:57;12.57;;;6.37;;
60060;SDS011;45933;51.336;12.612;2023-11-22T00:39:23;8.77;;;5.90;;
60060;SDS011;45933;51.336;12.612;2023-11-22T00:41:48;11.00;;;6.73;;
60060;SDS011;45933;51.336;12.612;2023-11-22T00:44:13;10.20;;;6.50;;
60060;SDS011;45933;51.336;12.612;2023-11-22T00:46:38;10.30;;;6.40;;
60060;SDS011;45933;51.336;12.612;2023-11-22T00:49:04;10.23;;;6.30;;
60060;SDS011;45933;51.336;12.612;2023-11-22T00:51:30;10.97;;;6.67;;
60060;SDS011;45933;51.336;12.612;2023-11-22T00:53:57;11.67;;;6.30;;
60060;SDS011;45933;51.336;12.612;2023-11-22T00:56:22;11.73;;;7.27;;
60060;SDS011;45933;51.336;12.612;2023-11-22T00:58:48;9.57;;;6.53;;
60060;SDS011;45933;51.336;12.612;2023-11-22T01:01:14;10.50;;;6.30;;
60060;SDS011;45933;51.336;12.612;2023-11-22T01:03:40;8.97;;;6.10;;
60060;SDS011;45933;51.336;12.612;2023-11-22T01:06:06;9.50;;;6.47;;
60060;SDS011;45933;51.336;12.612;2023-11-22T01:08:31;9.23;;;6.07;;
60060;SDS011;45933;51.336;12.612;2023-11-22T01:10:57;9.17;;;6.40;;
60060;SDS011;45933;51.336;12.612;2023-11-22T01:13:22;9.70;;;6.03;;
60060;SDS011;45933;51.336;12.612;2023-11-22T01:15:47;12.17;;;7.00;;
60060;SDS011;45933;51.336;12.612;2023-11-22T01:18:13;9.07;;;6.30;;
60060;SDS011;45933;51.336;12.612;2023-11-22T01:20:38;10.17;;;7.03;;
60060;SDS011;45933;51.336;12.612;2023-11-22T01:23:03;10.40;;;6.70;;
60060;SDS011;45933;51.336;12.612;2023-11-22T01:25:29;11.03;;;6.80;;
60060;SDS011;45933;51.336;12.612;2023-11-22T01:27:54;10.37;;;6.97;;
60060;SDS011;45933;51.336;12.612;2023-11-22T01:30:20;10.93;;;7.23;;
60060;SDS011;45933;51.336;12.612;2023-11-22T01:32:45;8.70;;;6.13;;
60060;SDS011;45933;51.336;12.612;2023-11-22T01:35:10;11.77;;;6.97;;
60060;SDS011;45933;51.336;12.612;2023-11-22T01:37:36;9.90;;;7.13;;
60060;SDS011;45933;51.336;12.612;2023-11-22T01:40:01;10.87;;;6.77;;
60060;SDS011;45933;51.336;12.612;2023-11-22T01:42:28;11.23;;;6.80;;
60060;SDS011;45933;51.336;12.612;2023-11-22T01:44:53;10.10;;;6.37;;
60060;SDS011;45933;51.336;12.612;2023-11-22T01:47:19;9.93;;;6.83;;
60060;SDS011;45933;51.336;12.612;2023-11-22T01:49:45;10.30;;;6.83;;
60060;SDS011;45933;51.336;12.612;2023-11-22T01:52:11;11.43;;;7.37;;
60060;SDS011;45933;51.336;12.612;2023-11-22T01:54:37;15.10;;;7.47;;
60060;SDS011;45933;51.336;12.612;2023-11-22T01:57:03;10.47;;;6.83;;
60060;SDS011;45933;51.336;12.612;2023-11-22T01:59:31;9.87;;;6.47;;
60060;SDS011;45933;51.336;12.612;2023-11-22T02:01:56;10.87;;;6.37;;
60060;SDS011;45933;51.336;12.612;2023-11-22T02:04:22;11.87;;;7.53;;
60060;SDS011;45933;51.336;12.612;2023-11-22T02:06:47;12.13;;;7.23;;
60060;SDS011;45933;51.336;12.612;2023-11-22T02:09:13;11.27;;;7.37;;
60060;SDS011;45933;51.336;12.612;2023-11-22T02:11:40;10.83;;;7.10;;
60060;SDS011;45933;51.336;12.612;2023-11-22T02:14:07;13.50;;;7.87;;
60060;SDS011;45933;51.336;12.612;2023-11-22T02:16:33;11.27;;;7.13;;
60060;SDS011;45933;51.336;12.612;2023-11-22T02:18:59;11.17;;;7.00;;
60060;SDS011;45933;51.336;12.612;2023-11-22T02:21:25;10.40;;;7.33;;
60060;SDS011;45933;51.336;12.612;2023-11-22T02:23:50;10.63;;;6.83;;
60060;SDS011;45933;51.336;12.612;2023-11-22T02:26:16;9.57;;;6.87;;
60060;SDS011;45933;51.336;12.612;2023-11-22T02:28:43;13.03;;;6.93;;
60060;SDS011;45933;51.336;12.612;2023-11-22T02:31:09;12.40;;;7.20;;
60060;SDS011;45933;51.336;12.612;2023-11-22T02:33:34;11.47;;;7.20;;
60060;SDS011;45933;51.336;12.612;2023-11-22T02:36:00;9.90;;;6.73;;
60060;SDS011;45933;51.336;12.612;2023-11-22T02:38:27;10.33;;;7.23;;
60060;SDS011;45933;51.336;12.612;2023-11-22T02:40:53;10.60;;;6.70;;
60060;SDS011;45933;51.336;12.612;2023-11-22T02:43:18;12.20;;;7.00;;
60060;SDS011;45933;51.336;12.612;2023-11-22T02:45:44;14.73;;;7.80;;
60060;SDS011;45933;51.336;12.612;2023-11-22T02:48:09;10.23;;;7.00;;
60060;SDS011;45933;51.336;12.612;2023-11-22T02:50:35;12.80;;;7.20;;
60060;SDS011;45933;51.336;12.612;2023-11-22T02:53:02;11.47;;;7.53;;
60060;SDS011;45933;51.336;12.612;2023-11-22T02:55:28;12.10;;;7.00;;
60060;SDS011;45933;51.336;12.612;2023-11-22T02:57:54;12.27;;;7.37;;
60060;SDS011;45933;51.336;12.612;2023-11-22T03:00:19;12.70;;;6.97;;
60060;SDS011;45933;51.336;12.612;2023-11-22T03:02:48;10.90;;;7.07;;
60060;SDS011;45933;51.336;12.612;2023-11-22T03:05:18;10.50;;;6.67;;
60060;SDS011;45933;51.336;12.612;2023-11-22T03:07:44;11.33;;;6.97;;
60060;SDS011;45933;51.336;12.612;2023-11-22T03:10:09;11.00;;;7.13;;
60060;SDS011;45933;51.336;12.612;2023-11-22T03:12:36;10.57;;;6.80;;
60060;SDS011;45933;51.336;12.612;2023-11-22T03:15:02;13.60;;;7.50;;
60060;SDS011;45933;51.336;12.612;2023-11-22T03:17:28;12.30;;;7.13;;
60060;SDS011;45933;51.336;12.612;2023-11-22T03:19:54;10.20;;;7.00;;
60060;SDS011;45933;51.336;12.612;2023-11-22T03:22:23;10.10;;;7.17;;
60060;SDS011;45933;51.336;12.612;2023-11-22T03:24:52;10.83;;;6.77;;
60060;SDS011;45933;51.336;12.612;2023-11-22T03:27:18;12.00;;;7.17;;
60060;SDS011;45933;51.336;12.612;2023-11-22T03:29:46;11.27;;;6.87;;
60060;SDS011;45933;51.336;12.612;2023-11-22T03:32:11;12.57;;;7.73;;
60060;SDS011;45933;51.336;12.612;2023-11-22T03:34:36;11.00;;;7.00;;
60060;SDS011;45933;51.336;12.612;2023-11-22T03:37:02;11.43;;;7.33;;
60060;SDS011;45933;51.336;12.612;2023-11-22T03:39:27;10.33;;;6.83;;
60060;SDS011;45933;51.336;12.612;2023-11-22T03:41:52;10.83;;;7.23;;
60060;SDS011;45933;51.336;12.612;2023-11-22T03:44:18;10.77;;;7.17;;
60060;SDS011;45933;51.336;12.612;2023-11-22T03:46:43;12.47;;;7.70;;
60060;SDS011;45933;51.336;12.612;2023-11-22T03:49:08;10.50;;;6.90;;
60060;SDS011;45933;51.336;12.612;2023-11-22T03:51:39;11.07;;;7.67;;
60060;SDS011;45933;51.336;12.612;2023-11-22T03:54:06;14.63;;;7.07;;
60060;SDS011;45933;51.336;12.612;2023-11-22T03:56:32;12.27;;;7.70;;
60060;SDS011;45933;51.336;12.612;2023-11-22T03:58:58;9.10;;;6.47;;
60060;SDS011;45933;51.336;12.612;2023-11-22T04:01:24;10.00;;;6.73;;
60060;SDS011;45933;51.336;12.612;2023-11-22T04:03:49;15.57;;;7.40;;
60060;SDS011;45933;51.336;12.612;2023-11-22T04:06:15;11.03;;;6.73;;
60060;SDS011;45933;51.336;12.612;2023-11-22T04:08:42;11.73;;;6.70;;
60060;SDS011;45933;51.336;12.612;2023-11-22T04:11:09;11.23;;;6.83;;
60060;SDS011;45933;51.336;12.612;2023-11-22T04:13:34;10.23;;;6.97;;
60060;SDS011;45933;51.336;12.612;2023-11-22T04:16:00;9.03;;;6.40;;
60060;SDS011;45933;51.336;12.612;2023-11-22T04:18:25;12.87;;;6.63;;
60060;SDS011;45933;51.336;12.612;2023-11-22T04:20:52;10.53;;;7.00;;
60060;SDS011;45933;51.336;12.612;2023-11-22T04:23:17;10.67;;;7.13;;
60060;SDS011;45933;51.336;12.612;2023-11-22T04:25:42;11.20;;;6.87;;
60060;SDS011;45933;51.336;12.612;2023-11-22T04:28:08;11.40;;;6.80;;
60060;SDS011;45933;51.336;12.612;2023-11-22T04:30:37;11.03;;;7.10;;
60060;SDS011;45933;51.336;12.612;2023-11-22T04:33:02;11.50;;;7.57;;
60060;SDS011;45933;51.336;12.612;2023-11-22T04:35:27;10.90;;;6.77;;
60060;SDS011;45933;51.336;12.612;2023-11-22T04:37:53;9.90;;;6.27;;
60060;SDS011;45933;51.336;12.612;2023-11-22T04:40:20;9.87;;;6.80;;
60060;SDS011;45933;51.336;12.612;2023-11-22T04:42:45;10.23;;;6.63;;
60060;SDS011;45933;51.336;12.612;2023-11-22T04:45:11;11.77;;;7.27;;
60060;SDS011;45933;51.336;12.612;2023-11-22T04:47:36;12.27;;;6.90;;
60060;SDS011;45933;51.336;12.612;2023-11-22T04:50:01;12.67;;;6.80;;
60060;SDS011;45933;51.336;12.612;2023-11-22T04:52:27;10.63;;;6.47;;
60060;SDS011;45933;51.336;12.612;2023-11-22T04:54:52;11.87;;;7.07;;
60060;SDS011;45933;51.336;12.612;2023-11-22T04:57:17;10.73;;;6.53;;
60060;SDS011;45933;51.336;12.612;2023-11-22T04:59:43;9.83;;;7.17;;
60060;SDS011;45933;51.336;12.612;2023-11-22T05:02:08;11.83;;;6.53;;
60060;SDS011;45933;51.336;12.612;2023-11-22T05:04:33;13.00;;;7.00;;
60060;SDS011;45933;51.336;12.612;2023-11-22T05:06:59;11.03;;;7.57;;
60060;SDS011;45933;51.336;12.612;2023-11-22T05:09:24;10.63;;;6.57;;
60060;SDS011;45933;51.336;12.612;2023-11-22T05:11:49;10.80;;;6.93;;
60060;SDS011;45933;51.336;12.612;2023-11-22T05:14:15;9.80;;;6.37;;
60060;SDS011;45933;51.336;12.612;2023-11-22T05:16:40;10.23;;;7.00;;
60060;SDS011;45933;51.336;12.612;2023-11-22T05:19:05;10.77;;;7.00;;
60060;SDS011;45933;51.336;12.612;2023-11-22T05:21:31;10.03;;;6.50;;
60060;SDS011;45933;51.336;12.612;2023-11-22T05:23:57;11.33;;;7.40;;
60060;SDS011;45933;51.336;12.612;2023-11-22T05:26:22;13.43;;;7.23;;
60060;SDS011;45933;51.336;12.612;2023-11-22T05:28:48;10.77;;;6.73;;
60060;SDS011;45933;51.336;12.612;2023-11-22T05:31:13;12.10;;;6.70;;
60060;SDS011;45933;51.336;12.612;2023-11-22T05:33:39;12.43;;;7.80;;
60060;SDS011;45933;51.336;12.612;2023-11-22T05:36:05;11.13;;;6.70;;
60060;SDS011;45933;51.336;12.612;2023-11-22T05:38:31;11.57;;;7.50;;
60060;SDS011;45933;51.336;12.612;2023-11-22T05:40:58;8.83;;;6.37;;
60060;SDS011;45933;51.336;12.612;2023-11-22T05:43:23;13.33;;;7.73;;
60060;SDS011;45933;51.336;12.612;2023-11-22T05:45:51;10.93;;;7.57;;
60060;SDS011;45933;51.336;12.612;2023-11-22T05:48:17;8.70;;;6.77;;
60060;SDS011;45933;51.336;12.612;2023-11-22T05:50:42;11.10;;;7.30;;
60060;SDS011;45933;51.336;12.612;2023-11-22T05:53:07;14.40;;;7.47;;
60060;SDS011;45933;51.336;12.612;2023-11-22T05:55:33;16.97;;;7.80;;
60060;SDS011;45933;51.336;12.612;2023-11-22T05:57:59;12.03;;;7.97;;
60060;SDS011;45933;51.336;12.612;2023-11-22T06:00:24;11.77;;;8.00;;
60060;SDS011;45933;51.336;12.612;2023-11-22T06:02:51;12.83;;;8.13;;
60060;SDS011;45933;51.336;12.612;2023-11-22T06:05:16;14.57;;;9.03;;
60060;SDS011;45933;51.336;12.612;2023-11-22T06:07:42;11.87;;;7.87;;
60060;SDS011;45933;51.336;12.612;2023-11-22T06:10:07;12.30;;;7.87;;
60060;SDS011;45933;51.336;12.612;2023-11-22T06:12:33;15.27;;;8.17;;
60060;SDS011;45933;51.336;12.612;2023-11-22T06:14:58;12.80;;;7.97;;
60060;SDS011;45933;51.336;12.612;2023-11-22T06:17:23;11.37;;;7.57;;
60060;SDS011;45933;51.336;12.612;2023-11-22T06:19:49;13.13;;;7.53;;
60060;SDS011;45933;51.336;12.612;2023-11-22T06:22:14;11.47;;;7.70;;
60060;SDS011;45933;51.336;12.612;2023-11-22T06:24:41;10.53;;;7.20;;
60060;SDS011;45933;51.336;12.612;2023-11-22T06:27:06;11.33;;;7.30;;
60060;SDS011;45933;51.336;12.612;2023-11-22T06:29:31;11.93;;;8.40;;
60060;SDS011;45933;51.336;12.612;2023-11-22T06:31:57;12.03;;;7.47;;
60060;SDS011;45933;51.336;12.612;2023-11-22T06:34:22;12.20;;;8.20;;
60060;SDS011;45933;51.336;12.612;2023-11-22T06:36:47;13.43;;;9.20;;
60060;SDS011;45933;51.336;12.612;2023-11-22T06:39:13;12.80;;;8.87;;
60060;SDS011;45933;51.336;12.612;2023-11-22T06:41:40;12.10;;;8.43;;
60060;SDS011;45933;51.336;12.612;2023-11-22T06:44:06;13.93;;;8.20;;
60060;SDS011;45933;51.336;12.612;2023-11-22T06:46:31;16.00;;;8.67;;
60060;SDS011;45933;51.336;12.612;2023-11-22T06:48:57;12.57;;;8.50;;
60060;SDS011;45933;51.336;12.612;2023-11-22T06:51:22;14.47;;;9.10;;
60060;SDS011;45933;51.336;12.612;2023-11-22T06:53:47;15.57;;;9.00;;
60060;SDS011;45933;51.336;12.612;2023-11-22T06:56:13;13.37;;;8.93;;
60060;SDS011;45933;51.336;12.612;2023-11-22T06:58:39;13.30;;;9.13;;
60060;SDS011;45933;51.336;12.612;2023-11-22T07:01:05;14.93;;;9.63;;
60060;SDS011;45933;51.336;12.612;2023-11-22T07:03:32;14.87;;;9.23;;
60060;SDS011;45933;51.336;12.612;2023-11-22T07:05:57;14.37;;;9.60;;
60060;SDS011;45933;51.336;12.612;2023-11-22T07:08:22;15.10;;;9.37;;
60060;SDS011;45933;51.336;12.612;2023-11-22T07:10:48;12.30;;;8.73;;
60060;SDS011;45933;51.336;12.612;2023-11-22T07:13:15;13.33;;;8.77;;
60060;SDS011;45933;51.336;12.612;2023-11-22T07:15:40;14.00;;;9.33;;
60060;SDS011;45933;51.336;12.612;2023-11-22T07:18:06;12.67;;;9.13;;
60060;SDS011;45933;51.336;12.612;2023-11-22T07:20:31;14.70;;;9.63;;
60060;SDS011;45933;51.336;12.612;2023-11-22T07:22:56;13.13;;;9.63;;
60060;SDS011;45933;51.336;12.612;2023-11-22T07:25:22;13.10;;;9.53;;
60060;SDS011;45933;51.336;12.612;2023-11-22T07:27:50;16.00;;;9.80;;
60060;SDS011;45933;51.336;12.612;2023-11-22T07:30:16;14.93;;;9.43;;
60060;SDS011;45933;51.336;12.612;2023-11-22T07:32:45;14.77;;;10.10;;
60060;SDS011;45933;51.336;12.612;2023-11-22T07:35:10;14.20;;;9.97;;
60060;SDS011;45933;51.336;12.612;2023-11-22T07:37:37;14.90;;;9.83;;
60060;SDS011;45933;51.336;12.612;2023-11-22T07:40:07;14.50;;;9.67;;
60060;SDS011;45933;51.336;12.612;2023-11-22T07:42:34;13.17;;;9.13;;
60060;SDS011;45933;51.336;12.612;2023-11-22T07:45:00;13.87;;;9.20;;
60060;SDS011;45933;51.336;12.612;2023-11-22T07:47:25;14.83;;;10.13;;
60060;SDS011;45933;51.336;12.612;2023-11-22T07:49:51;15.53;;;9.83;;
60060;SDS011;45933;51.336;12.612;2023-11-22T07:52:17;15.43;;;9.93;;
60060;SDS011;45933;51.336;12.612;2023-11-22T07:54:42;12.90;;;8.87;;
60060;SDS011;45933;51.336;12.612;2023-11-22T07:57:09;17.40;;;10.53;;
60060;SDS011;45933;51.336;12.612;2023-11-22T07:59:35;13.63;;;9.47;;
60060;SDS011;45933;51.336;12.612;2023-11-22T08:02:01;12.67;;;8.47;;
60060;SDS011;45933;51.336;12.612;2023-11-22T08:04:27;13.73;;;9.37;;
60060;SDS011;45933;51.336;12.612;2023-11-22T08:06:53;14.47;;;10.23;;
60060;SDS011;45933;51.336;12.612;2023-11-22T08:09:21;15.57;;;9.87;;
60060;SDS011;45933;51.336;12.612;2023-11-22T08:11:47;14.87;;;9.77;;
60060;SDS011;45933;51.336;12.612;2023-11-22T08:14:13;12.87;;;9.10;;
60060;SDS011;45933;51.336;12.612;2023-11-22T08:16:39;13.10;;;8.97;;
60060;SDS011;45933;51.336;12.612;2023-11-22T08:19:07;14.73;;;9.87;;
60060;SDS011;45933;51.336;12.612;2023-11-22T08:21:33;15.13;;;9.47;;
60060;SDS011;45933;51.336;12.612;2023-11-22T08:23:58;13.77;;;9.23;;
60060;SDS011;45933;51.336;12.612;2023-11-22T08:26:24;14.10;;;9.37;;
60060;SDS011;45933;51.336;12.612;2023-11-22T08:28:50;14.63;;;9.77;;
60060;SDS011;45933;51.336;12.612;2023-11-22T08:31:16;13.47;;;9.00;;
60060;SDS011;45933;51.336;12.612;2023-11-22T08:33:41;15.23;;;10.13;;
60060;SDS011;45933;51.336;12.612;2023-11-22T08:36:07;14.87;;;9.33;;
60060;SDS011;45933;51.336;12.612;2023-11-22T08:38:33;13.20;;;9.33;;
60060;SDS011;45933;51.336;12.612;2023-11-22T08:41:05;16.07;;;10.50;;
60060;SDS011;45933;51.336;12.612;2023-11-22T08:43:31;13.37;;;9.40;;
60060;SDS011;45933;51.336;12.612;2023-11-22T08:46:00;14.50;;;9.67;;
60060;SDS011;45933;51.336;12.612;2023-11-22T08:48:29;16.23;;;10.70;;
60060;SDS011;45933;51.336;12.612;2023-11-22T08:50:54;16.97;;;10.73;;
60060;SDS011;45933;51.336;12.612;2023-11-22T08:53:20;15.23;;;9.80;;
60060;SDS011;45933;51.336;12.612;2023-11-22T08:55:47;14.90;;;10.17;;
60060;SDS011;45933;51.336;12.612;2023-11-22T08:58:12;15.10;;;10.10;;
60060;SDS011;45933;51.336;12.612;2023-11-22T09:00:38;16.07;;;10.70;;
60060;SDS011;45933;51.336;12.612;2023-11-22T09:03:04;16.20;;;11.13;;
60060;SDS011;45933;51.336;12.612;2023-11-22T09:05:29;14.50;;;9.77;;
60060;SDS011;45933;51.336;12.612;2023-11-22T09:07:54;15.47;;;10.87;;
60060;SDS011;45933;51.336;12.612;2023-11-22T09:10:24;18.07;;;11.10;;
60060;SDS011;45933;51.336;12.612;2023-11-22T09:12:49;16.50;;;11.10;;
60060;SDS011;45933;51.336;12.612;2023-11-22T09:15:16;15.80;;;11.10;;
60060;SDS011;45933;51.336;12.612;2023-11-22T09:17:43;14.47;;;10.40;;
60060;SDS011;45933;51.336;12.612;2023-11-22T09:20:10;14.43;;;10.60;;
60060;SDS011;45933;51.336;12.612;2023-11-22T09:22:41;14.97;;;11.13;;
60060;SDS011;45933;51.336;12.612;2023-11-22T09:25:22;15.17;;;10.07;;
60060;SDS011;45933;51.336;12.612;2023-11-22T09:27:52;15.13;;;10.47;;
60060;SDS011;45933;51.336;12.612;2023-11-22T09:30:24;14.40;;;10.43;;
60060;SDS011;45933;51.336;12.612;2023-11-22T09:33:04;13.80;;;10.27;;
60060;SDS011;45933;51.336;12.612;2023-11-22T09:35:31;13.80;;;10.23;;
60060;SDS011;45933;51.336;12.612;2023-11-22T09:37:58;16.37;;;10.47;;
60060;SDS011;45933;51.336;12.612;2023-11-22T09:40:24;17.50;;;11.70;;
60060;SDS011;45933;51.336;12.612;2023-11-22T09:42:52;14.47;;;10.37;;
60060;SDS011;45933;51.336;12.612;2023-11-22T09:45:17;14.47;;;10.03;;
60060;SDS011;45933;51.336;12.612;2023-11-22T09:47:43;14.97;;;10.50;;
60060;SDS011;45933;51.336;12.612;2023-11-22T09:50:17;14.67;;;10.33;;
60060;SDS011;45933;51.336;12.612;2023-11-22T09:52:46;16.27;;;10.73;;
60060;SDS011;45933;51.336;12.612;2023-11-22T09:55:16;15.33;;;11.00;;
60060;SDS011;45933;51.336;12.612;2023-11-22T09:57:42;16.73;;;11.67;;
60060;SDS011;45933;51.336;12.612;2023-11-22T10:00:08;33.43;;;19.90;;
60060;SDS011;45933;51.336;12.612;2023-11-22T10:02:39;25.03;;;14.87;;
60060;SDS011;45933;51.336;12.612;2023-11-22T10:05:05;34.90;;;20.43;;
60060;SDS011;45933;51.336;12.612;2023-11-22T10:07:33;21.50;;;14.20;;
60060;SDS011;45933;51.336;12.612;2023-11-22T10:10:00;20.90;;;13.33;;
60060;SDS011;45933;51.336;12.612;2023-11-22T10:12:30;17.53;;;12.10;;
60060;SDS011;45933;51.336;12.612;2023-11-22T10:14:55;17.60;;;11.40;;
60060;SDS011;45933;51.336;12.612;2023-11-22T10:17:22;17.37;;;10.63;;
60060;SDS011;45933;51.336;12.612;2023-11-22T10:19:47;15.73;;;11.63;;
60060;SDS011;45933;51.336;12.612;2023-11-22T10:22:12;20.57;;;14.70;;
60060;SDS011;45933;51.336;12.612;2023-11-22T10:24:42;25.37;;;18.33;;
60060;SDS011;45933;51.336;12.612;2023-11-22T10:27:08;21.40;;;16.00;;
60060;SDS011;45933;51.336;12.612;2023-11-22T10:29:35;22.30;;;15.50;;
60060;SDS011;45933;51.336;12.612;2023-11-22T10:32:01;22.90;;;14.53;;
60060;SDS011;45933;51.336;12.612;2023-11-22T10:34:28;19.33;;;14.17;;
60060;SDS011;45933;51.336;12.612;2023-11-22T10:36:55;16.53;;;11.53;;
60060;SDS011;45933;51.336;12.612;2023-11-22T10:39:21;15.80;;;10.80;;
60060;SDS011;45933;51.336;12.612;2023-11-22T10:41:46;16.40;;;11.33;;
60060;SDS011;45933;51.336;12.612;2023-11-22T10:44:12;15.73;;;10.50;;
60060;SDS011;45933;51.336;12.612;2023-11-22T10:46:38;14.50;;;10.43;;
60060;SDS011;45933;51.336;12.612;2023-11-22T10:49:05;16.00;;;11.60;;
60060;SDS011;45933;51.336;12.612;2023-11-22T10:51:31;16.77;;;11.00;;
60060;SDS011;45933;51.336;12.612;2023-11-22T10:53:58;13.40;;;9.80;;
60060;SDS011;45933;51.336;12.612;2023-11-22T10:56:26;12.67;;;9.40;;
60060;SDS011;45933;51.336;12.612;2023-11-22T10:58:56;13.73;;;9.90;;
60060;SDS011;45933;51.336;12.612;2023-11-22T11:01:25;14.30;;;9.90;;
60060;SDS011;45933;51.336;12.612;2023-11-22T11:04:07;13.30;;;10.20;;
60060;SDS011;45933;51.336;12.612;2023-11-22T11:06:36;15.87;;;11.37;;
60060;SDS011;45933;51.336;12.612;2023-11-22T11:09:02;12.60;;;9.40;;
60060;SDS011;45933;51.336;12.612;2023-11-22T11:11:34;14.23;;;9.90;;
60060;SDS011;45933;51.336;12.612;2023-11-22T11:14:02;14.50;;;10.57;;
60060;SDS011;45933;51.336;12.612;2023-11-22T11:16:28;14.83;;;10.33;;
60060;SDS011;45933;51.336;12.612;2023-11-22T11:18:56;13.07;;;9.73;;
60060;SDS011;45933;51.336;12.612;2023-11-22T11:21:22;21.07;;;15.50;;
60060;SDS011;45933;51.336;12.612;2023-11-22T11:23:50;15.73;;;11.63;;
60060;SDS011;45933;51.336;12.612;2023-11-22T11:26:18;15.37;;;10.97;;
60060;SDS011;45933;51.336;12.612;2023-11-22T11:28:47;16.70;;;10.63;;
60060;SDS011;45933;51.336;12.612;2023-11-22T11:31:14;13.73;;;10.30;;
60060;SDS011;45933;51.336;12.612;2023-11-22T11:36:21;16.93;;;10.67;;
60060;SDS011;45933;51.336;12.612;2023-11-22T11:38:50;16.27;;;9.90;;
60060;SDS011;45933;51.336;12.612;2023-11-22T11:41:16;11.90;;;9.27;;
60060;SDS011;45933;51.336;12.612;2023-11-22T11:46:14;14.60;;;10.30;;
60060;SDS011;45933;51.336;12.612;2023-11-22T11:48:50;13.90;;;9.90;;
60060;SDS011;45933;51.336;12.612;2023-11-22T11:51:17;15.03;;;9.67;;
60060;SDS011;45933;51.336;12.612;2023-11-22T11:53:46;15.17;;;10.13;;
60060;SDS011;45933;51.336;12.612;2023-11-22T11:56:12;15.63;;;10.90;;
60060;SDS011;45933;51.336;12.612;2023-11-22T11:58:38;13.73;;;9.77;;
60060;SDS011;45933;51.336;12.612;2023-11-22T12:01:05;13.03;;;9.33;;
60060;SDS011;45933;51.336;12.612;2023-11-22T12:03:32;14.57;;;9.73;;
60060;SDS011;45933;51.336;12.612;2023-11-22T12:05:57;16.03;;;10.17;;
60060;SDS011;45933;51.336;12.612;2023-11-22T12:08:23;15.00;;;9.60;;
60060;SDS011;45933;51.336;12.612;2023-11-22T12:10:48;16.30;;;10.83;;
60060;SDS011;45933;51.336;12.612;2023-11-22T12:13:20;13.97;;;9.13;;
60060;SDS011;45933;51.336;12.612;2023-11-22T12:15:50;13.17;;;8.93;;
60060;SDS011;45933;51.336;12.612;2023-11-22T12:18:16;13.90;;;8.93;;
60060;SDS011;45933;51.336;12.612;2023-11-22T12:20:42;14.23;;;10.27;;
60060;SDS011;45933;51.336;12.612;2023-11-22T12:23:07;15.00;;;9.57;;
60060;SDS011;45933;51.336;12.612;2023-11-22T12:25:33;14.57;;;10.23;;
60060;SDS011;45933;51.336;12.612;2023-11-22T12:28:00;15.70;;;10.03;;
60060;SDS011;45933;51.336;12.612;2023-11-22T12:32:55;14.47;;;10.67;;
60060;SDS011;45933;51.336;12.612;2023-11-22T12:35:21;13.80;;;9.53;;
60060;SDS011;45933;51.336;12.612;2023-11-22T12:37:48;15.23;;;10.70;;
60060;SDS011;45933;51.336;12.612;2023-11-22T12:40:13;15.17;;;11.73;;
60060;SDS011;45933;51.336;12.612;2023-11-22T12:42:49;17.43;;;13.57;;
60060;SDS011;45933;51.336;12.612;2023-11-22T12:45:21;18.80;;;13.23;;
60060;SDS011;45933;51.336;12.612;2023-11-22T12:47:49;15.57;;;10.83;;
60060;SDS011;45933;51.336;12.612;2023-11-22T12:50:30;23.17;;;16.37;;
60060;SDS011;45933;51.336;12.612;2023-11-22T12:52:57;16.90;;;11.77;;
60060;SDS011;45933;51.336;12.612;2023-11-22T12:55:23;14.37;;;10.43;;
60060;SDS011;45933;51.336;12.612;2023-11-22T12:58:00;29.10;;;18.07;;
60060;SDS011;45933;51.336;12.612;2023-11-22T13:00:28;16.93;;;11.63;;
60060;SDS011;45933;51.336;12.612;2023-11-22T13:02:55;30.07;;;18.10;;
60060;SDS011;45933;51.336;12.612;2023-11-22T13:05:21;19.50;;;12.50;;
60060;SDS011;45933;51.336;12.612;2023-11-22T13:07:47;15.97;;;11.13;;
60060;SDS011;45933;51.336;12.612;2023-11-22T13:10:12;14.17;;;10.47;;
60060;SDS011;45933;51.336;12.612;2023-11-22T13:12:42;14.83;;;9.93;;
60060;SDS011;45933;51.336;12.612;2023-11-22T13:15:09;13.03;;;9.43;;
60060;SDS011;45933;51.336;12.612;2023-11-22T13:17:38;13.17;;;9.30;;
60060;SDS011;45933;51.336;12.612;2023-11-22T13:20:07;13.17;;;9.50;;
60060;SDS011;45933;51.336;12.612;2023-11-22T13:22:39;13.30;;;9.70;;
60060;SDS011;45933;51.336;12.612;2023-11-22T13:25:06;14.63;;;9.67;;
60060;SDS011;45933;51.336;12.612;2023-11-22T13:27:42;14.07;;;9.67;;
60060;SDS011;45933;51.336;12.612;2023-11-22T13:30:07;12.57;;;9.27;;
60060;SDS011;45933;51.336;12.612;2023-11-22T13:32:33;10.33;;;8.67;;
60060;SDS011;45933;51.336;12.612;2023-11-22T13:34:59;12.40;;;9.33;;
60060;SDS011;45933;51.336;12.612;2023-11-22T13:37:24;12.83;;;9.30;;
60060;SDS011;45933;51.336;12.612;2023-11-22T13:39:50;12.77;;;9.00;;
60060;SDS011;45933;51.336;12.612;2023-11-22T13:42:15;13.13;;;8.80;;
60060;SDS011;45933;51.336;12.612;2023-11-22T13:44:41;13.03;;;9.67;;
60060;SDS011;45933;51.336;12.612;2023-11-22T13:47:06;12.63;;;8.93;;
60060;SDS011;45933;51.336;12.612;2023-11-22T13:49:33;11.73;;;8.53;;
60060;SDS011;45933;51.336;12.612;2023-11-22T13:51:58;14.17;;;9.20;;
60060;SDS011;45933;51.336;12.612;2023-11-22T13:54:24;14.40;;;10.07;;
60060;SDS011;45933;51.336;12.612;2023-11-22T13:56:49;13.80;;;10.27;;
60060;SDS011;45933;51.336;12.612;2023-11-22T13:59:15;12.80;;;9.73;;
60060;SDS011;45933;51.336;12.612;2023-11-22T14:01:40;12.57;;;9.97;;
60060;SDS011;45933;51.336;12.612;2023-11-22T14:04:05;13.60;;;10.23;;
60060;SDS011;45933;51.336;12.612;2023-11-22T14:06:32;13.90;;;9.60;;
60060;SDS011;45933;51.336;12.612;2023-11-22T14:08:57;15.83;;;10.00;;
60060;SDS011;45933;51.336;12.612;2023-11-22T14:11:22;16.47;;;10.53;;
60060;SDS011;45933;51.336;12.612;2023-11-22T14:13:48;13.23;;;10.20;;
60060;SDS011;45933;51.336;12.612;2023-11-22T14:16:13;14.63;;;10.17;;
60060;SDS011;45933;51.336;12.612;2023-11-22T14:18:40;15.33;;;10.13;;
60060;SDS011;45933;51.336;12.612;2023-11-22T14:21:05;14.57;;;10.27;;